NCAR-RAP Real-Time Weather Data

Output produced by METARs form (14 October 2019  23:26 UTC)
found at http://weather.rap.ucar.edu/surface/
 
KCLT 142252Z VRB04KT 10SM SCT250 20/07 A3006 RMK AO2 SLP175 T02000072
KCLT 142152Z 27003KT 10SM FEW250 24/06 A3007 RMK AO2 SLP174 T02440056
KCLT 142052Z 00000KT 10SM SCT250 26/04 A3006 RMK AO2 SLP172 T02560039 56008
KCLT 141952Z VRB03KT 10SM FEW250 25/04 A3006 RMK AO2 SLP174 T02500044
KCLT 141852Z VRB03KT 10SM CLR 24/08 A3007 RMK AO2 SLP175 T02440078
KCLT 141752Z 00000KT 10SM CLR 23/08 A3008 RMK AO2 SLP181 T02330078 10239 20161 58013
KCLT 141652Z 32006KT 10SM CLR 23/10 A3011 RMK AO2 SLP189 T02330100
KCLT 141552Z 04007KT 10SM FEW010 22/10 A3012 RMK AO2 SLP192 T02170100
KCLT 141452Z VRB03KT 10SM FEW008 20/11 A3012 RMK AO2 SLP195 T02000111 51018
KCLT 141352Z 36005KT 10SM FEW007 19/13 A3011 RMK AO2 SLP190 T01890128
KCLT 141252Z 02004KT 6SM HZ SCT006 18/14 A3009 RMK AO2 SLP184 T01780144
KCLT 141241Z 36003KT 5SM BR SCT003 SCT006 17/15 A3009 RMK AO2 T01720150
KCLT 141219Z VRB03KT 3SM BCFG SCT000 BKN003 17/16 A3008 RMK AO2 FG SCT000 T01670156
KCLT 141152Z 00000KT 1SM R18C/1800V4000FT BCFG SCT000 OVC002 16/15 A3007 RMK AO2 SLP178 FG SCT000 70105 T01610150 10167 20144 53017
KCLT 141141Z 00000KT 3/4SM R18C/2200V2800FT BCFG SCT000 OVC002 16/15 A3007 RMK AO2 FG SCT000 T01610150
KCLT 141134Z 00000KT 1 1/4SM R18C/2000V2800FT BR OVC002 16/16 A3006 RMK AO2 VIS W 3/4 T01610156
KCLT 141102Z 34004KT 2SM BR OVC003 17/15 A3005 RMK AO2 T01670150
KCLT 141052Z 35003KT 4SM BR BKN003 16/15 A3005 RMK AO2 SLP170 T01610150
KCLT 141037Z 03003KT 6SM BR BKN002 16/14 A3004 RMK AO2 T01560144
KCLT 141012Z 24003KT 8SM FEW004 BKN017 OVC023 16/15 A3003 RMK AO2 T01610150
KCLT 140952Z 00000KT 7SM FEW004 BKN012 OVC019 16/15 A3004 RMK AO2 SLP166 T01610150
KCLT 140852Z 00000KT 10SM OVC012 16/15 A3002 RMK AO2 SLP161 T01610150 53003
KCLT 140820Z 00000KT 9SM BKN014 16/14 A3001 RMK AO2 T01560144
KCLT 140752Z 00000KT 10SM FEW012 FEW250 16/14 A3001 RMK AO2 SLP158 T01560144
KCLT 140712Z 00000KT 5SM BR FEW012 16/14 A3001 RMK AO2 T01610144
KCLT 140652Z 00000KT 10SM BKN012 OVC220 16/14 A3001 RMK AO2 SLP157 T01610144
KCLT 140650Z 00000KT 10SM BKN012 OVC220 16/15 A3001 RMK AO2
KCLT 140552Z 00000KT 10SM OVC220 16/15 A3002 RMK AO2 SLP158 60005 T01610150 10194 20161 56009
KCLT 140452Z 00000KT 10SM OVC210 18/16 A3002 RMK AO2 SLP161 T01780161 402110167
KCLT 140352Z 00000KT 10SM FEW100 OVC220 18/16 A3002 RMK AO2 SLP161 T01830161
KCLT 140252Z 26004KT 10SM FEW045 SCT110 OVC180 18/17 A3004 RMK AO2 SLP167 60005 T01830167 53001
KCLT 140152Z 25005KT 10SM FEW015 BKN090 BKN110 OVC160 19/17 A3003 RMK AO2 RAE52 SLP164 P0005 T01940172
KCLT 140120Z 21005KT 6SM -RA BR SCT016 SCT070 OVC110 19/18 A3003 RMK AO2 P0000 T01940178
KCLT 140052Z 25005KT 9SM -RA BKN015 BKN035 OVC160 19/18 A3004 RMK AO2 RAB51 SLP166 P0000 T01940178
KCLT 140050Z 24005KT 9SM BKN015 OVC160 19/18 A3004 RMK AO2
KCLT 132352Z 21003KT 7SM OVC009 19/18 A3000 RMK AO2 CIG 005V013 SLP153 60030 T01940178 10206 20194 58005
KCLT 132334Z 23004KT 7SM BKN009 OVC200 19/18 A3000 RMK AO2 CIG 007V011 T01940178
KCLT 132320Z 21003KT 7SM SCT009 BKN110 19/18 A3000 RMK AO2 LTG DSNT SE T01940178
KCLT 132252Z 20005KT 7SM FEW015 FEW045 OVC100 19/18 A3000 RMK AO2 LTG DSNT E AND S RAB05E14 SLP154 P0000 T01940178
KCLT 132221Z 22006KT 8SM SCT019 SCT065 OVC090 19/18 A3001 RMK AO2 LTG DSNT SW RAB05E14 P0000 T01940178
KCLT 132152Z 23005KT 8SM OVC023 19/18 A3001 RMK AO2 LTG DSNT SW RAE12 TSB2056E11 SLP158 TS DSIPTD P0016 T01940178
KCLT 132124Z 26005KT 9SM FEW008 BKN027 OVC060 19/18 A3001 RMK AO2 RAE12 TSB2056E11 TS DSIPTD P0016 T01940178
KCLT 132115Z 24006KT 8SM VCTS SCT008 BKN025CB OVC060 19/18 A3001 RMK AO2 RAE12 TSB2056E11 OCNL LTGICCG E TS E MOV NE P0016 T01940178
KCLT 132058Z VRB05KT 3SM R18C/5500VP6000FT +TSRA BR FEW010 BKN025 OVC033CB 19/18 A3001 RMK AO2 TSB56 OCNL LTGICCG E TS E MOV NE P0007 T01940178
KCLT 132052Z 22006KT 3SM R18C/5500VP6000FT +RA BR FEW010 OVC025 19/18 A3001 RMK AO2 RAB42 SLP158 P0000 60014 T01940178 55001
KCLT 132037Z 24005KT 10SM FEW010 BKN025 OVC055 20/18 A3001 RMK AO2 T02000178
KCLT 131952Z 21006KT 5SM BR BKN010 OVC040 20/18 A3001 RMK AO2 RAE44 SLP156 P0011 T02000183
KCLT 131943Z 20006KT 3SM -RA BR BKN012 OVC045 20/18 A3000 RMK AO2 P0011 T02000183
KCLT 131927Z 22006KT 1 3/4SM R18C/5000VP6000FT -RA BR BKN010 OVC023 19/18 A3001 RMK AO2 P0003 T01940178 $
KCLT 131852Z 19010KT 4SM R18C/6000VP6000FT RA BR BKN010 BKN035 OVC060 20/18 A3001 RMK AO2 RAE04B43 SLP154 P0003 T02000183 $
KCLT 131752Z 16008KT 5SM -RA BR SCT010 BKN060 OVC100 21/18 A3002 RMK AO2 RAE02B30 SLP158 P0000 60070 T02060183 10206 20167 58018 $
KCLT 131728Z 17009KT 5SM BR SCT005 BKN012 OVC060 20/18 A3004 RMK AO2 LTG DSNT N AND NW RAE02 P0000 T02000178 $
KCLT 131652Z 16008KT 3SM -RA BR SCT004 BKN040 OVC070 19/18 A3006 RMK AO2 SLP171 P0022 T01940178 $
KCLT 131634Z 17011KT 2 1/2SM -RA BR SCT004 BKN022 OVC070 19/17 A3006 RMK AO2 P0022 T01890172 $
KCLT 131614Z 19008KT 1 3/4SM R18C/4500VP6000FT +RA BR BKN004 BKN020 OVC050 18/17 A3008 RMK AO2 P0005 T01830172 $
KCLT 131552Z 15007KT 3SM -RA BR BKN004 BKN055 OVC070 18/17 A3005 RMK AO2 SLP170 P0004 T01830172 $
KCLT 131542Z 15009KT 3SM -RA BR BKN004 BKN055 OVC070 18/17 A3006 RMK AO2 P0004 T01830172 $
KCLT 131452Z 00000KT 4SM -RA BR FEW005 SCT040 BKN060 18/16 A3007 RMK AO2 TSE02 SLP177 TS MOV E P0020 60044 T01830161 51013 $
KCLT 131403Z 24005KT 3SM -RA BR SCT041 BKN060 OVC100 17/16 A3009 RMK AO2 TSE02 PRESRR TS MOV E P0002 T01720156 $
KCLT 131352Z 00000KT 2 1/2SM -TSRA BR SCT043CB BKN070 OVC110 17/16 A3006 RMK AO2 LTG DSNT E RAB1253 TSE1258B07E26B29 SLP174 OCNL LTGICCC E TS E MOV E P0024 T01720156 $
KCLT 131339Z 15003KT 1 3/4SM R18C/5000VP6000FT +TSRA BR BKN050CB BKN070 OVC110 17/16 A3006 RMK AO2 RAB1253 TSE1258B07E26B29 PRESFR OCNL LTGICCCCG OHD-SE-S TS OHD-SE-S MOV E P0014 T01670156 $
KCLT 131308Z 26004KT 4SM -TSRA BKN065CB BKN090 OVC110 17/16 A3009 RMK AO2 LTG DSNT SW AND W RAB1253 TSE1258B07 PRESRR OCNL LTGICCC SW-W TS SW-W MOV NE P0003 T01720156 $
KCLT 131304Z 27005KT 5SM VCTS RA BR BKN065 BKN090 OVC110 17/16 A3009 RMK AO2 LTG DSNT SW AND W RAB1253 TSE1258 PRESRR P0002 T01720156 $
KCLT 131252Z 28003KT 5SM BR BKN070 BKN090 OVC120 18/16 A3006 RMK AO2 RAB00RAEMM SLP174 P0000 T01780156 $
KCLT 131152Z 16005KT 10SM FEW070 SCT090 BKN120 19/14 A3003 RMK AO2 SLP164 VIRGA OHD AND N AND W T01890144 10206 20172 50008
KCLT 131052Z 17003KT 10SM SCT085 BKN120 17/14 A3004 RMK AO2 SLP164 T01720139
KCLT 130952Z 16004KT 10SM FEW070 BKN110 18/14 A3002 RMK AO2 SLP156 T01830139
KCLT 130852Z 16003KT 10SM BKN070 19/14 A3001 RMK AO2 SLP153 T01890139 53000
KCLT 130752Z 00000KT 10SM SCT070 BKN110 19/14 A3001 RMK AO2 SLP152 T01890139
KCLT 130652Z 16004KT 10SM FEW070 FEW090 BKN110 19/13 A3000 RMK AO2 SLP151 T01940133
KCLT 130552Z 16004KT 10SM SCT060 BKN080 21/13 A3001 RMK AO2 SLP153 T02060133 10233 20194 56002
KCLT 130452Z 18003KT 10SM FEW070 BKN090 20/13 A3001 RMK AO2 SLP154 T02000133 403000139
KCLT 130352Z 19003KT 10SM FEW080 BKN100 20/13 A3001 RMK AO2 SLP154 T02000133
KCLT 130252Z 20004KT 10SM FEW080 BKN100 22/13 A3002 RMK AO2 SLP156 T02170133 53006
KCLT 130152Z 19005KT 10SM BKN100 22/13 A3001 RMK AO2 SLP156 T02170128
KCLT 130052Z 18006KT 10SM FEW070 FEW120 22/13 A3000 RMK AO2 SLP152 T02220128
KCLT 122352Z 20005KT 10SM FEW120 23/13 A3000 RMK AO2 SLP152 T02280128 10300 20228 53007